Gypsy, Kentucky
Current Conditions -  °F | °C
As of 10:55 AM on Friday 19 Dec 2014 (Local Time) from KSJS Reporting Station
Overcast Overcast  
Wind Chill: -1°   Ceiling: 1600
Heat Index: -1°   Visibility: 10mi
Dew Point: -5°   Wind: 0mph
Humidity: 75%   Direction: NA
Pressure: 30.26"   Gusts: NA
Location:  37.6421°N, 82.9499°W
Report Text: KSJS 191555Z AUTO 00000KT 10SM OVC016 M01/M04 A3026 RMK AO2 T10061045
Loading
Personal Weather Stations






























Interactive Weather Map New forecast layout! Learn more

10-Day Weather Forecast

Advertisements
Track Severe Weather on mobile